Portada
METAR-TAF:

METAR-TAF

Aeropuertos :

Aeropuerto Internacional de Doha

Doha, Qatar

latitud: 25-15-40N, longitud: 051-33-54E, altitud: 11 m

Observación

El informe se hizo hace 15 minutos, a las 00:00 UTC
Viento 7 kt del noroeste
Temperatura 18°C
Humedad 73%
Presión 1017 hPa
Visibilidad 10 km o más
sin nubes por debajo de 1500 m y sin presencia de cumulonimbus.

METAR: OTBD 200000Z AUTO 31007KT CAVOK 18/13 Q1017 NOSIG

Hora: 03:15 (00:15 UTC)

Pronóstico

El informe se hizo hace 1 hora y 12 minutos, a las 23:03 UTC
Pronóstico válido del 20 a las 00 UTC al 21 a las 06 UTC
Viento 7 kt del noroeste
Visibilidad 10 km o más
sin nubes por debajo de 1500 m y sin presencia de cumulonimbus.
Evolucionando progresivamente
del 20 a las 08 UTC al 20 a las 10 UTC
Viento 5 kt del norte-noreste
Evolucionando progresivamente
del 20 a las 16 UTC al 20 a las 18 UTC
Viento 8 kt del sur

TAF: OTBD 192303Z 2000/2106 31007KT CAVOK BECMG 2008/2010 03005KT BECMG 2016/2018 18008KT

Observaciones y pronósticos meteorológicos de más de 4000 aeropuertos (mensajes METAR y TAF).

Los puntos amarillos y rojos representan las estaciones disponibles.

Ponga el ratón en el punto deseado para ver el nombre de la estación.

Haga clic para ver las observaciones y los pronósticos meteorológicos.

Para cambiar el mapa : haga clic en los botones verdes con una cruz de color negro para hacer un zoom, en el botón verde con un guión para alejar o en las flechas verdes para mapas adyacentes.


METAR-TAF: